Terminal Aerodrome Forecast
Issued by NWS Springfield, MO

Home | Current Version | Previous Version | Text Only | Print | Product List | Glossary On
Versions: 1 2 3 4 5 6 7 8 9 10 11 12 13 14
000
FTUS43 KSGF 100536
TAFSGF
TAF
KSGF 100536Z 1006/1106 21004KT P6SM SKC
     FM101000 20008KT P6SM SKC WS020/27040KT
     FM101400 22012G17KT P6SM SKC
     FM101700 26013G20KT P6SM SKC
     FM110000 27008KT P6SM SKC=

USA.gov is the U.S. government's official web portal to all federal, state and local government web resources and services.